createdAt,value
2023-06-29T00:01:14.432Z,29.05
2023-06-29T00:03:42.832Z,28.75
2023-06-29T00:06:10.058Z,29.10
2023-06-29T00:08:37.182Z,27.88
2023-06-29T00:11:04.184Z,31.27
2023-06-29T00:13:31.518Z,26.48
2023-06-29T00:15:58.498Z,30.35
2023-06-29T00:18:27.880Z,27.48
2023-06-29T00:20:56.224Z,29.08
2023-06-29T00:23:23.297Z,27.90
2023-06-29T00:25:50.312Z,30.40
2023-06-29T00:28:17.227Z,29.60
2023-06-29T00:30:44.265Z,30.52
2023-06-29T00:33:11.265Z,26.83
2023-06-29T00:35:38.159Z,28.05
2023-06-29T00:38:06.498Z,31.75
2023-06-29T00:40:33.459Z,28.42
2023-06-29T00:43:00.363Z,30.63
2023-06-29T00:45:27.470Z,29.35
2023-06-29T00:47:54.494Z,31.58
2023-06-29T00:50:22.123Z,28.30
2023-06-29T00:52:49.234Z,31.67
2023-06-29T00:55:17.963Z,31.02
2023-06-29T00:57:45.387Z,27.60
2023-06-29T01:00:13.701Z,31.40
2023-06-29T01:02:40.883Z,30.42
2023-06-29T01:05:08.542Z,32.35
2023-06-29T01:07:40.589Z,32.30
2023-06-29T01:10:10.927Z,29.45
2023-06-29T01:12:39.941Z,31.58
2023-06-29T01:15:10.090Z,30.52
2023-06-29T01:17:39.306Z,28.65
2023-06-29T01:20:07.911Z,31.55
2023-06-29T01:22:39.076Z,30.75
2023-06-29T01:25:07.898Z,33.25
2023-06-29T01:27:35.245Z,29.30
2023-06-29T01:30:02.617Z,31.27
2023-06-29T01:32:29.704Z,30.88
2023-06-29T01:34:56.915Z,32.10
2023-06-29T01:37:28.450Z,29.15
2023-06-29T01:39:59.812Z,30.98
2023-06-29T01:42:31.643Z,30.75
2023-06-29T01:45:00.127Z,33.20
2023-06-29T01:47:28.633Z,35.67
2023-06-29T01:49:56.028Z,32.20
2023-06-29T01:52:23.349Z,33.15
2023-06-29T01:54:50.298Z,32.92
2023-06-29T01:57:17.274Z,33.15
2023-06-29T01:59:46.486Z,35.85
2023-06-29T02:02:13.814Z,34.80
2023-06-29T02:04:40.951Z,30.48
2023-06-29T02:07:07.917Z,37.78
2023-06-29T02:09:35.314Z,32.15
2023-06-29T02:12:02.326Z,35.05
2023-06-29T02:14:29.289Z,36.03
2023-06-29T02:16:57.707Z,37.00
2023-06-29T02:19:24.859Z,37.42
2023-06-29T02:21:51.979Z,36.78
2023-06-29T02:24:18.964Z,38.70
2023-06-29T02:26:45.922Z,41.63
2023-06-29T02:29:13.033Z,41.63
2023-06-29T02:31:40.126Z,41.95
2023-06-29T02:34:08.917Z,42.53
2023-06-29T02:36:36.249Z,37.05
2023-06-29T02:39:03.458Z,38.85
2023-06-29T02:41:30.523Z,43.65
2023-06-29T02:43:57.509Z,39.67
2023-06-29T02:46:24.618Z,40.55
2023-06-29T02:48:51.607Z,39.05
2023-06-29T02:51:20.136Z,37.80
2023-06-29T02:53:47.259Z,38.85
2023-06-29T02:56:14.263Z,37.25
2023-06-29T02:58:42.434Z,37.13
2023-06-29T03:01:09.395Z,41.03
2023-06-29T03:03:36.643Z,36.65
2023-06-29T03:06:04.004Z,35.50
2023-06-29T03:08:32.425Z,39.85
2023-06-29T03:10:59.462Z,37.83
2023-06-29T03:13:26.440Z,39.63
2023-06-29T03:15:53.404Z,37.08
2023-06-29T03:18:20.340Z,38.45
2023-06-29T03:20:47.448Z,37.72
2023-06-29T03:23:14.349Z,40.28
2023-06-29T03:25:42.839Z,35.65
2023-06-29T03:28:10.140Z,38.25
2023-06-29T03:30:37.062Z,38.33
2023-06-29T03:33:04.183Z,46.63
2023-06-29T03:35:31.212Z,40.83
2023-06-29T03:37:58.149Z,41.17
2023-06-29T03:40:25.060Z,39.33
2023-06-29T03:42:53.377Z,38.78
2023-06-29T03:45:20.491Z,39.70
2023-06-29T03:47:47.478Z,38.15
2023-06-29T03:50:14.460Z,36.65
2023-06-29T03:52:41.558Z,40.55
2023-06-29T03:55:09.830Z,37.40
2023-06-29T03:57:36.731Z,38.72
2023-06-29T04:00:06.246Z,40.55
2023-06-29T04:02:33.287Z,42.20
2023-06-29T04:05:00.247Z,41.42
2023-06-29T04:07:27.681Z,39.72
2023-06-29T04:09:54.643Z,41.15
2023-06-29T04:12:22.113Z,41.65
2023-06-29T04:14:49.043Z,40.30
2023-06-29T04:17:17.455Z,42.72
2023-06-29T04:19:44.411Z,37.90
2023-06-29T04:22:11.313Z,39.15
2023-06-29T04:24:38.197Z,42.05
2023-06-29T04:27:05.836Z,39.45
2023-06-29T04:29:32.777Z,42.15
2023-06-29T04:31:59.710Z,40.38
2023-06-29T04:34:27.960Z,35.85
2023-06-29T04:36:54.913Z,40.10
2023-06-29T04:39:21.829Z,39.20
2023-06-29T04:41:48.885Z,37.28
2023-06-29T04:44:15.837Z,41.63
2023-06-29T04:46:42.938Z,45.00
2023-06-29T04:49:09.935Z,40.03
2023-06-29T04:51:38.549Z,38.67
2023-06-29T04:54:05.971Z,44.92
2023-06-29T04:56:32.922Z,40.15
2023-06-29T04:58:59.963Z,37.40
2023-06-29T05:01:26.914Z,39.03
2023-06-29T05:03:53.958Z,45.58
2023-06-29T05:06:20.935Z,36.33
2023-06-29T05:08:49.308Z,40.10
2023-06-29T05:11:16.412Z,40.50
2023-06-29T05:13:43.347Z,44.88
2023-06-29T05:16:10.351Z,46.05
2023-06-29T05:18:37.532Z,40.35
2023-06-29T05:21:04.425Z,40.00
2023-06-29T05:23:31.334Z,41.00
2023-06-29T05:25:59.651Z,39.10
2023-06-29T05:28:26.542Z,41.67
2023-06-29T05:30:53.524Z,40.10
2023-06-29T05:33:20.415Z,42.30
2023-06-29T05:35:47.425Z,43.15
2023-06-29T05:38:14.405Z,42.95
2023-06-29T05:40:41.435Z,42.45
2023-06-29T05:43:09.798Z,40.53
2023-06-29T05:45:37.614Z,40.58
2023-06-29T05:48:05.094Z,40.22
2023-06-29T05:50:32.085Z,41.20
2023-06-29T05:52:59.036Z,41.25
2023-06-29T05:55:25.929Z,42.22
2023-06-29T05:57:53.064Z,38.83
2023-06-29T06:00:21.635Z,39.92
2023-06-29T06:02:48.564Z,41.90
2023-06-29T06:05:15.758Z,41.60
2023-06-29T06:07:42.701Z,41.15
2023-06-29T06:10:10.326Z,45.17
2023-06-29T06:12:37.536Z,39.33
2023-06-29T06:15:05.148Z,42.75
2023-06-29T06:17:33.531Z,42.13
2023-06-29T06:20:00.529Z,41.80
2023-06-29T06:22:27.459Z,41.30
2023-06-29T06:24:54.371Z,43.35
2023-06-29T06:27:21.484Z,41.33
2023-06-29T06:29:48.450Z,40.53
2023-06-29T06:32:15.462Z,39.47
2023-06-29T06:34:43.813Z,39.85
2023-06-29T06:37:10.817Z,46.65
2023-06-29T06:39:37.766Z,43.75
2023-06-29T06:42:05.084Z,43.25
2023-06-29T06:44:32.102Z,42.50
2023-06-29T06:46:59.068Z,37.92
2023-06-29T06:49:26.089Z,43.47
2023-06-29T06:51:54.454Z,43.47
2023-06-29T06:54:22.660Z,44.00
2023-06-29T06:56:49.800Z,51.17
2023-06-29T06:59:16.844Z,43.53
2023-06-29T07:01:43.893Z,45.47
2023-06-29T07:04:11.284Z,46.67
2023-06-29T07:06:38.215Z,45.15
2023-06-29T07:09:06.632Z,42.90
2023-06-29T07:11:33.654Z,46.40
2023-06-29T07:14:00.800Z,45.25
2023-06-29T07:16:27.712Z,44.33
2023-06-29T07:21:35.678Z,48.83
2023-06-29T07:24:07.433Z,43.58
2023-06-29T07:26:37.024Z,44.92
2023-06-29T07:29:05.602Z,47.22
2023-06-29T07:31:33.104Z,48.00
2023-06-29T07:34:00.209Z,45.40
2023-06-29T07:36:27.957Z,49.60
2023-06-29T07:38:54.889Z,46.42
2023-06-29T07:41:22.382Z,46.20
2023-06-29T07:43:53.246Z,49.75
2023-06-29T07:46:20.299Z,49.97
2023-06-29T07:48:47.872Z,47.58
2023-06-29T07:51:14.982Z,47.58
2023-06-29T07:53:42.123Z,51.35
2023-06-29T07:56:09.572Z,52.65
2023-06-29T07:58:39.882Z,50.50
2023-06-29T08:01:08.768Z,47.53
2023-06-29T08:03:47.348Z,48.17
2023-06-29T08:08:52.864Z,49.95
2023-06-29T08:11:19.944Z,47.72
2023-06-29T08:13:47.001Z,51.25
2023-06-29T08:16:15.285Z,48.60
2023-06-29T08:18:42.568Z,49.92
2023-06-29T08:21:10.083Z,50.85
2023-06-29T08:23:37.351Z,48.55
2023-06-29T08:26:05.079Z,50.75
2023-06-29T08:28:32.072Z,49.30
2023-06-29T08:30:59.169Z,48.90
2023-06-29T08:33:27.483Z,45.42
2023-06-29T08:35:54.512Z,50.22
2023-06-29T08:38:21.438Z,49.30
2023-06-29T08:40:48.661Z,51.45
2023-06-29T08:43:16.257Z,51.90
2023-06-29T08:45:43.265Z,52.15
2023-06-29T08:48:12.998Z,53.83
2023-06-29T08:50:44.928Z,49.63
2023-06-29T08:53:13.464Z,50.17
2023-06-29T08:55:42.605Z,50.92
2023-06-29T08:58:09.780Z,55.38
2023-06-29T09:00:37.268Z,56.33
2023-06-29T09:03:05.022Z,55.03
2023-06-29T09:05:33.228Z,51.30
2023-06-29T09:08:01.533Z,52.92
2023-06-29T09:10:28.519Z,49.85
2023-06-29T09:12:55.879Z,50.95
2023-06-29T09:15:23.794Z,51.13
2023-06-29T09:17:55.321Z,58.67
2023-06-29T09:20:22.549Z,50.20
2023-06-29T09:22:50.274Z,52.92
2023-06-29T09:25:33.187Z,53.15
2023-06-29T09:28:08.343Z,51.72
2023-06-29T09:30:37.283Z,56.78
2023-06-29T09:33:08.845Z,53.53
2023-06-29T09:35:37.561Z,52.35
2023-06-29T09:38:04.545Z,49.85
2023-06-29T09:40:33.116Z,53.03
2023-06-29T09:43:03.248Z,51.72
2023-06-29T09:45:32.494Z,50.78
2023-06-29T09:50:29.541Z,54.53
2023-06-29T09:52:56.648Z,49.03
2023-06-29T09:55:30.465Z,55.60
2023-06-29T09:57:59.723Z,53.95
2023-06-29T10:00:26.673Z,51.38
2023-06-29T10:02:54.689Z,50.58
2023-06-29T10:05:22.215Z,50.60
2023-06-29T10:07:51.715Z,51.65
2023-06-29T10:10:21.395Z,50.40
2023-06-29T10:12:54.545Z,54.95
2023-06-29T10:15:25.779Z,54.05
2023-06-29T10:18:00.445Z,55.40
2023-06-29T10:22:58.662Z,49.08
2023-06-29T10:25:27.213Z,52.60
2023-06-29T10:27:54.670Z,50.83
2023-06-29T10:30:23.009Z,48.83
2023-06-29T10:32:51.037Z,48.75
2023-06-29T10:35:18.482Z,49.95
2023-06-29T10:37:47.126Z,50.25
2023-06-29T10:40:15.007Z,49.33
2023-06-29T10:42:53.490Z,52.13
2023-06-29T10:45:39.154Z,53.50
2023-06-29T10:48:08.241Z,50.03
2023-06-29T10:50:41.110Z,51.63
2023-06-29T10:53:10.184Z,50.67
2023-06-29T10:55:45.973Z,50.40
2023-06-29T10:58:20.768Z,49.65
2023-06-29T11:00:50.137Z,49.42
2023-06-29T11:03:18.009Z,51.40
2023-06-29T11:05:47.699Z,51.10
2023-06-29T11:08:14.847Z,51.92
2023-06-29T11:10:41.806Z,50.72
2023-06-29T11:13:10.287Z,50.45
2023-06-29T11:15:37.836Z,51.10
2023-06-29T11:18:07.497Z,52.20
2023-06-29T11:20:36.831Z,50.92
2023-06-29T11:23:04.261Z,52.65
2023-06-29T11:25:31.257Z,52.78
2023-06-29T11:27:59.013Z,49.90
2023-06-29T11:30:26.440Z,56.22
2023-06-29T11:32:54.275Z,52.20
2023-06-29T11:35:23.552Z,53.65
2023-06-29T11:37:52.200Z,51.88
2023-06-29T11:40:21.279Z,48.13
2023-06-29T11:42:50.109Z,55.85
2023-06-29T11:45:18.040Z,51.03
2023-06-29T11:47:46.029Z,52.78
2023-06-29T11:50:13.279Z,51.10
2023-06-29T11:52:43.704Z,53.08
2023-06-29T11:55:13.177Z,52.22
2023-06-29T11:57:41.638Z,48.00
2023-06-29T12:00:28.121Z,51.15
2023-06-29T12:02:55.142Z,52.97
2023-06-29T12:05:27.073Z,53.70
2023-06-29T12:07:55.621Z,52.50
2023-06-29T12:10:23.973Z,49.60
2023-06-29T12:12:52.143Z,52.08
2023-06-29T12:15:20.343Z,52.20
2023-06-29T12:20:20.062Z,53.78
2023-06-29T12:22:48.266Z,54.63
2023-06-29T12:25:18.928Z,54.33
2023-06-29T12:27:48.605Z,53.55
2023-06-29T12:30:16.956Z,49.90
2023-06-29T12:32:46.478Z,52.75
2023-06-29T12:35:14.361Z,50.45
2023-06-29T12:37:41.387Z,54.97
2023-06-29T12:40:08.826Z,53.05
2023-06-29T12:42:37.139Z,46.78
2023-06-29T12:45:05.057Z,48.50
2023-06-29T12:47:32.726Z,46.88
2023-06-29T12:49:59.682Z,49.15
2023-06-29T12:52:26.838Z,46.10
2023-06-29T12:54:53.813Z,46.45
2023-06-29T12:57:21.085Z,51.05
2023-06-29T12:59:49.390Z,48.28
2023-06-29T13:02:16.458Z,49.80
2023-06-29T13:04:43.468Z,52.38
2023-06-29T13:07:10.550Z,50.97
2023-06-29T13:09:37.617Z,50.38
2023-06-29T13:12:05.402Z,50.97
2023-06-29T13:14:32.421Z,49.38
2023-06-29T13:17:01.315Z,55.13
2023-06-29T13:19:28.820Z,53.97
2023-06-29T13:21:56.238Z,51.00
2023-06-29T13:24:24.022Z,53.17
2023-06-29T13:26:51.047Z,52.28
2023-06-29T13:29:18.140Z,51.38
2023-06-29T13:31:45.059Z,49.40
2023-06-29T13:34:13.369Z,50.15
2023-06-29T13:36:40.385Z,49.08
2023-06-29T13:39:07.285Z,51.25
2023-06-29T13:41:38.582Z,53.70
2023-06-29T13:44:06.299Z,48.58
2023-06-29T13:46:33.464Z,52.95
2023-06-29T13:49:00.885Z,48.55
2023-06-29T13:51:30.539Z,48.35
2023-06-29T13:53:58.207Z,49.25
2023-06-29T13:56:25.521Z,49.55
2023-06-29T13:58:52.780Z,48.03
2023-06-29T14:01:20.180Z,46.70
2023-06-29T14:03:47.547Z,51.47
2023-06-29T14:06:14.895Z,49.47
2023-06-29T14:08:43.170Z,46.85
2023-06-29T14:11:10.101Z,43.10
2023-06-29T14:13:37.390Z,41.47
2023-06-29T14:16:04.644Z,45.83
2023-06-29T14:18:31.697Z,46.35
2023-06-29T14:20:58.624Z,46.97
2023-06-29T14:23:25.597Z,43.05
2023-06-29T14:25:53.903Z,44.15
2023-06-29T14:28:20.804Z,44.10
2023-06-29T14:30:47.861Z,43.33
2023-06-29T14:33:27.673Z,44.90
2023-06-29T14:35:55.587Z,40.60
2023-06-29T14:38:22.628Z,39.63
2023-06-29T14:40:49.590Z,39.88
2023-06-29T14:43:18.793Z,40.45
2023-06-29T14:45:46.248Z,40.45
2023-06-29T14:48:13.565Z,42.47
2023-06-29T14:50:40.463Z,43.28
2023-06-29T14:53:07.581Z,40.33
2023-06-29T14:55:34.582Z,38.03
2023-06-29T14:58:01.659Z,40.08
2023-06-29T15:00:29.932Z,41.33
2023-06-29T15:02:56.913Z,42.25
2023-06-29T15:05:23.953Z,39.88
2023-06-29T15:07:50.956Z,36.28
2023-06-29T15:10:18.011Z,29.67
2023-06-29T15:12:45.005Z,29.92
2023-06-29T15:15:14.115Z,29.15
2023-06-29T15:17:43.471Z,21.73
2023-06-29T15:20:11.523Z,19.88
2023-06-29T15:22:38.433Z,23.30
2023-06-29T15:25:06.579Z,18.80
2023-06-29T15:27:33.529Z,18.95
2023-06-29T15:30:01.505Z,19.35
2023-06-29T15:32:28.565Z,21.88
2023-06-29T15:34:56.992Z,28.27
2023-06-29T15:37:23.996Z,29.67
2023-06-29T15:39:51.025Z,32.47
2023-06-29T15:42:17.932Z,39.47
2023-06-29T15:44:44.841Z,39.85
2023-06-29T15:47:11.766Z,38.35
2023-06-29T15:49:38.749Z,37.58
2023-06-29T15:52:08.607Z,38.85
2023-06-29T15:54:35.623Z,40.42
2023-06-29T15:57:02.708Z,40.80
2023-06-29T15:59:29.842Z,39.28
2023-06-29T16:01:56.772Z,37.75
2023-06-29T16:04:23.950Z,35.47
2023-06-29T16:06:50.948Z,40.20
2023-06-29T16:09:19.366Z,40.65
2023-06-29T16:11:46.321Z,38.92
2023-06-29T16:14:13.204Z,40.33
2023-06-29T16:16:40.213Z,41.03
2023-06-29T16:19:07.174Z,39.22
2023-06-29T16:21:34.096Z,37.63
2023-06-29T16:24:01.043Z,36.83
2023-06-29T16:26:29.415Z,40.10
2023-06-29T16:28:56.349Z,34.53
2023-06-29T16:31:23.457Z,36.95
2023-06-29T16:33:50.775Z,40.35
2023-06-29T16:36:18.223Z,34.42
2023-06-29T16:38:45.591Z,35.15
2023-06-29T16:41:12.753Z,36.38
2023-06-29T16:43:41.024Z,32.60
2023-06-29T16:46:08.043Z,31.48
2023-06-29T16:48:35.084Z,32.03
2023-06-29T16:51:02.012Z,28.65
2023-06-29T16:53:28.990Z,30.42
2023-06-29T16:55:57.139Z,23.40
2023-06-29T16:58:24.493Z,26.13
2023-06-29T17:00:52.864Z,22.05
2023-06-29T17:03:19.841Z,22.55
2023-06-29T17:05:47.093Z,21.25
2023-06-29T17:08:14.229Z,21.10
2023-06-29T17:10:41.197Z,21.02
2023-06-29T17:13:08.124Z,19.23
2023-06-29T17:15:35.044Z,17.80
2023-06-29T17:18:03.503Z,20.00
2023-06-29T17:20:30.470Z,19.77
2023-06-29T17:22:57.367Z,18.13
2023-06-29T17:25:24.277Z,18.48
2023-06-29T17:27:51.428Z,16.35
2023-06-29T17:30:18.378Z,16.02
2023-06-29T17:32:45.476Z,15.77
2023-06-29T17:35:13.806Z,17.90
2023-06-29T17:37:41.696Z,17.73
2023-06-29T17:40:09.277Z,18.15
2023-06-29T17:42:36.209Z,19.73
2023-06-29T17:45:03.197Z,20.73
2023-06-29T17:47:30.278Z,25.23
2023-06-29T17:49:57.313Z,24.88
2023-06-29T17:52:25.586Z,22.10
2023-06-29T17:54:52.740Z,19.83
2023-06-29T17:57:19.701Z,17.50
2023-06-29T17:59:46.908Z,17.67
2023-06-29T18:02:13.945Z,15.32
2023-06-29T18:04:41.060Z,18.90
2023-06-29T18:07:08.222Z,15.25
2023-06-29T18:09:36.596Z,12.63
2023-06-29T18:12:04.168Z,9.90
2023-06-29T18:14:31.091Z,10.90
2023-06-29T18:16:58.790Z,8.48
2023-06-29T18:19:25.709Z,9.32
2023-06-29T18:21:52.781Z,9.85
2023-06-29T18:24:19.824Z,8.82
2023-06-29T18:26:49.874Z,11.98
2023-06-29T18:29:17.220Z,11.80
2023-06-29T18:31:44.288Z,11.73
2023-06-29T18:34:11.320Z,9.52
2023-06-29T18:36:38.424Z,9.10
2023-06-29T18:39:05.442Z,10.07
2023-06-29T18:41:33.526Z,7.88
2023-06-29T18:44:03.436Z,10.73
2023-06-29T18:46:31.439Z,6.63
2023-06-29T18:48:58.661Z,7.88
2023-06-29T18:51:26.125Z,8.57
2023-06-29T18:53:53.826Z,9.63
2023-06-29T18:56:21.376Z,8.55
2023-06-29T18:58:48.721Z,8.00
2023-06-29T19:01:17.596Z,8.45
2023-06-29T19:03:45.187Z,5.80
2023-06-29T19:06:12.138Z,5.57
2023-06-29T19:08:39.317Z,6.00
2023-06-29T19:11:06.428Z,5.25
2023-06-29T19:13:33.596Z,3.97
2023-06-29T19:16:01.891Z,4.70
2023-06-29T19:18:32.218Z,5.63
2023-06-29T19:20:59.337Z,3.58
2023-06-29T19:23:26.716Z,4.32
2023-06-29T19:25:53.644Z,4.95
2023-06-29T19:28:20.726Z,5.20
2023-06-29T19:30:47.895Z,3.83
2023-06-29T19:33:14.899Z,4.50
2023-06-29T19:35:43.592Z,3.42
2023-06-29T19:38:10.856Z,3.50
2023-06-29T19:40:37.801Z,5.20
2023-06-29T19:43:04.696Z,3.65
2023-06-29T19:45:31.605Z,3.88
2023-06-29T19:47:58.591Z,5.78
2023-06-29T19:50:25.909Z,5.57
2023-06-29T19:52:54.356Z,5.82
2023-06-29T19:55:21.482Z,4.78
2023-06-29T19:57:48.398Z,3.78
2023-06-29T20:00:16.072Z,3.00
2023-06-29T20:02:43.150Z,3.90
2023-06-29T20:05:10.544Z,4.03
2023-06-29T20:07:40.098Z,3.45
2023-06-29T20:10:09.239Z,3.13
2023-06-29T20:12:36.402Z,3.17
2023-06-29T20:15:03.681Z,4.10
2023-06-29T20:17:30.713Z,5.80
2023-06-29T20:19:58.059Z,4.63
2023-06-29T20:22:24.989Z,5.45
2023-06-29T20:24:51.985Z,5.10
2023-06-29T20:27:20.303Z,4.95
2023-06-29T20:29:47.267Z,2.45
2023-06-29T20:32:14.752Z,3.58
2023-06-29T20:34:41.737Z,2.67
2023-06-29T20:37:08.720Z,5.15
2023-06-29T20:39:35.885Z,2.25
2023-06-29T20:42:02.925Z,3.80
2023-06-29T20:44:31.221Z,2.72
2023-06-29T20:46:58.440Z,4.65
2023-06-29T20:49:25.359Z,2.53
2023-06-29T20:51:53.126Z,4.07
2023-06-29T20:54:21.522Z,5.28
2023-06-29T20:56:48.662Z,4.50
2023-06-29T20:59:15.838Z,4.43
2023-06-29T21:01:44.321Z,2.65
2023-06-29T21:04:12.006Z,4.80
2023-06-29T21:06:39.147Z,2.75
2023-06-29T21:09:06.073Z,2.92
2023-06-29T21:11:33.339Z,3.80
2023-06-29T21:14:00.572Z,4.95
2023-06-29T21:16:27.772Z,3.22
2023-06-29T21:18:57.068Z,2.90
2023-06-29T21:21:24.963Z,3.42
2023-06-29T21:23:52.514Z,5.40
2023-06-29T21:26:20.099Z,4.00
2023-06-29T21:28:49.289Z,5.75
2023-06-29T21:31:17.042Z,4.03
2023-06-29T21:33:44.480Z,3.78
2023-06-29T21:36:13.987Z,3.85
2023-06-29T21:38:46.676Z,6.32
2023-06-29T21:41:17.830Z,3.70
2023-06-29T21:43:44.814Z,4.55
2023-06-29T21:46:11.765Z,3.95
2023-06-29T21:48:38.719Z,2.80
2023-06-29T21:51:05.807Z,3.22
2023-06-29T21:53:34.107Z,4.70
2023-06-29T21:56:13.413Z,4.45
2023-06-29T21:58:48.107Z,4.60
2023-06-29T22:01:15.751Z,5.10
2023-06-29T22:03:42.845Z,6.93
2023-06-29T22:06:09.970Z,4.90
2023-06-29T22:08:38.417Z,4.63
2023-06-29T22:11:05.539Z,3.70
2023-06-29T22:13:32.637Z,6.18
2023-06-29T22:15:59.682Z,5.95
2023-06-29T22:18:26.748Z,8.23
2023-06-29T22:20:53.849Z,6.28
2023-06-29T22:23:21.358Z,5.50
2023-06-29T22:25:49.746Z,5.07
2023-06-29T22:28:16.854Z,5.43
2023-06-29T22:30:43.884Z,6.63
2023-06-29T22:33:10.913Z,6.28
2023-06-29T22:35:37.898Z,3.85
2023-06-29T22:38:04.919Z,5.45
2023-06-29T22:40:31.896Z,4.55
2023-06-29T22:43:00.192Z,5.53
2023-06-29T22:45:27.141Z,4.13
2023-06-29T22:47:54.171Z,5.00
2023-06-29T22:50:21.292Z,5.60
2023-06-29T22:52:48.192Z,4.53
2023-06-29T22:55:15.127Z,5.55
2023-06-29T22:57:42.247Z,7.15
2023-06-29T23:00:12.090Z,4.85
2023-06-29T23:02:39.133Z,6.65
2023-06-29T23:05:06.696Z,5.28
2023-06-29T23:07:34.242Z,5.80
2023-06-29T23:10:01.319Z,5.68
2023-06-29T23:12:28.395Z,7.32
2023-06-29T23:14:55.333Z,5.65
2023-06-29T23:17:23.763Z,6.47
2023-06-29T23:19:51.046Z,7.43
2023-06-29T23:22:18.450Z,5.22
2023-06-29T23:24:45.780Z,7.57
2023-06-29T23:27:12.785Z,7.75
2023-06-29T23:29:39.816Z,6.93
2023-06-29T23:32:07.455Z,6.53
2023-06-29T23:34:35.781Z,5.35
2023-06-29T23:37:02.828Z,8.18
2023-06-29T23:39:29.758Z,5.35
2023-06-29T23:41:56.799Z,7.35
2023-06-29T23:44:23.732Z,8.38
2023-06-29T23:46:51.027Z,6.15
2023-06-29T23:49:19.958Z,7.55
2023-06-29T23:51:48.916Z,6.35
2023-06-29T23:54:16.224Z,7.80
2023-06-29T23:56:44.245Z,9.15
2023-06-29T23:59:11.376Z,8.70
